Time,TemperatureF,DewpointF,PressureIn,WindDirection,WindDirectionDegrees,WindSpeedMPH,WindSpeedGustMPH,Humidity,HourlyPrecipIn,Conditions,Clouds,dailyrainin,SoftwareType,DateUTC
2013-06-04 00:02:00,62.0,50.0,-100.00,SE,145,23.0,27.0,64,0.00,,,0.00,,2013-06-04 05:02:00,
2013-06-04 00:12:00,62.0,50.0,-100.00,SSE,150,22.0,29.0,64,0.00,,,0.00,,2013-06-04 05:12:00,
2013-06-04 00:22:00,62.0,52.0,-100.00,SSE,160,17.0,26.0,65,0.00,,,0.00,,2013-06-04 05:22:00,
2013-06-04 00:32:00,62.0,52.0,-100.00,SSE,155,19.0,24.0,66,0.00,,,0.00,,2013-06-04 05:32:00,
2013-06-04 00:42:00,63.0,52.0,-100.00,SSE,155,20.0,26.0,67,0.00,,,0.00,,2013-06-04 05:42:00,
2013-06-04 00:52:00,62.0,52.0,-100.00,SSE,150,19.0,24.0,68,0.00,,,0.00,,2013-06-04 05:52:00,
2013-06-04 01:02:00,62.0,54.0,-100.00,SSE,160,22.0,26.0,70,0.00,,,0.00,,2013-06-04 06:02:00,
2013-06-04 01:12:00,62.0,54.0,-100.00,SSE,155,16.0,26.0,70,0.00,,,0.00,,2013-06-04 06:12:00,
2013-06-04 01:22:00,62.0,54.0,-100.00,SSE,155,31.0,36.0,71,0.01,,,0.00,,2013-06-04 06:22:00,
2013-06-04 01:32:00,62.0,54.0,-100.00,South,170,15.0,31.0,72,0.00,,,0.00,,2013-06-04 06:32:00,
2013-06-04 01:42:00,62.0,54.0,-100.00,South,175,20.0,26.0,72,0.00,,,0.00,,2013-06-04 06:42:00,
2013-06-04 01:52:00,62.0,54.0,-100.00,South,180,16.0,31.0,73,0.00,,,0.00,,2013-06-04 06:52:00,
2013-06-04 02:02:00,62.0,54.0,-100.00,SSW,200,15.0,19.0,75,0.00,,,0.00,,2013-06-04 07:02:00,
2013-06-04 02:12:00,62.0,54.0,-100.00,South,180,15.0,20.0,76,0.00,,,0.00,,2013-06-04 07:12:00,
2013-06-04 02:22:00,62.0,55.0,-100.00,South,170,20.0,24.0,77,0.00,,,0.00,,2013-06-04 07:22:00,
2013-06-04 02:32:00,62.0,55.0,-100.00,South,190,15.0,20.0,79,0.00,,,0.00,,2013-06-04 07:32:00,
2013-06-04 02:42:00,61.0,55.0,-100.00,SSE,165,20.0,22.0,80,0.00,,,0.00,,2013-06-04 07:42:00,
2013-06-04 02:52:00,61.0,55.0,-100.00,South,180,18.0,22.0,83,0.00,,,0.00,,2013-06-04 07:52:00,
2013-06-04 03:02:00,60.0,57.0,-100.00,South,180,16.0,22.0,87,0.00,,,0.00,,2013-06-04 08:02:00,
2013-06-04 03:12:00,60.0,57.0,-100.00,South,190,15.0,17.0,90,0.00,,,0.00,,2013-06-04 08:12:00,
2013-06-04 03:22:00,60.0,57.0,-100.00,South,185,12.0,17.0,91,0.00,,,0.00,,2013-06-04 08:22:00,
2013-06-04 03:32:00,60.0,57.0,-100.00,South,180,12.0,15.0,93,0.00,,,0.00,,2013-06-04 08:32:00,
2013-06-04 03:42:00,59.0,59.0,-100.00,South,180,8.0,15.0,95,0.00,,,0.00,,2013-06-04 08:42:00,
2013-06-04 03:52:00,59.0,57.0,-100.00,SSE,165,7.0,11.0,95,0.00,,,0.00,,2013-06-04 08:52:00,
2013-06-04 04:02:00,59.0,57.0,-100.00,SSE,150,4.0,9.0,96,0.00,,,0.00,,2013-06-04 09:02:00,
2013-06-04 04:12:00,58.0,57.0,-100.00,SE,145,11.0,15.0,97,0.00,,,0.00,,2013-06-04 09:12:00,
2013-06-04 04:22:00,58.0,57.0,-100.00,ESE,110,13.0,19.0,98,0.01,,,0.01,,2013-06-04 09:22:00,
2013-06-04 04:33:00,58.0,57.0,-100.00,SE,130,21.0,29.0,98,0.00,,,0.01,,2013-06-04 09:33:00,
2013-06-04 04:43:00,58.0,57.0,-100.00,SSE,160,21.0,29.0,97,0.01,,,0.01,,2013-06-04 09:43:00,
2013-06-04 04:53:00,58.0,57.0,-100.00,South,170,21.0,27.0,97,0.00,,,0.01,,2013-06-04 09:53:00,
2013-06-04 05:02:00,58.0,57.0,-100.00,South,190,19.0,29.0,97,0.00,,,0.01,,2013-06-04 10:02:00,
2013-06-04 05:12:00,58.0,57.0,-100.00,SSW,195,12.0,20.0,97,0.00,,,0.01,,2013-06-04 10:12:00,
2013-06-04 05:22:00,58.0,57.0,-100.00,South,175,14.0,17.0,97,0.00,,,0.01,,2013-06-04 10:22:00,
2013-06-04 05:33:00,58.0,57.0,-100.00,South,185,16.0,19.0,98,0.00,,,0.01,,2013-06-04 10:33:00,
2013-06-04 05:42:00,57.0,57.0,-100.00,SSE,155,18.0,22.0,98,0.00,,,0.01,,2013-06-04 10:42:00,
2013-06-04 05:52:00,57.0,57.0,-100.00,SSE,155,26.0,29.0,99,0.00,,,0.01,,2013-06-04 10:52:00,
2013-06-04 06:42:00,57.0,57.0,-100.00,SE,145,26.0,32.0,98,0.00,,,0.01,,2013-06-04 11:42:00,
2013-06-04 06:52:00,57.0,57.0,-100.00,SSE,165,18.0,30.0,98,0.00,,,0.01,,2013-06-04 11:52:00,
2013-06-04 07:02:00,58.0,57.0,-100.00,South,175,14.0,22.0,98,0.00,,,0.01,,2013-06-04 12:02:00,
2013-06-04 07:12:00,58.0,57.0,-100.00,South,170,14.0,19.0,98,0.00,,,0.01,,2013-06-04 12:12:00,
2013-06-04 07:22:00,57.0,57.0,-100.00,SSE,160,14.0,21.0,98,0.00,,,0.01,,2013-06-04 12:22:00,
2013-06-04 07:32:00,58.0,57.0,-100.00,South,175,18.0,21.0,98,0.00,,,0.01,,2013-06-04 12:32:00,
2013-06-04 07:42:00,58.0,57.0,-100.00,South,180,18.0,22.0,98,0.00,,,0.01,,2013-06-04 12:42:00,
2013-06-04 07:52:00,57.0,57.0,-100.00,South,170,15.0,24.0,98,0.00,,,0.01,,2013-06-04 12:52:00,
2013-06-04 08:02:00,57.0,57.0,-100.00,South,185,11.0,18.0,99,0.00,,,0.01,,2013-06-04 13:02:00,
2013-06-04 08:12:00,57.0,57.0,-100.00,SW,220,9.0,15.0,99,0.00,,,0.01,,2013-06-04 13:12:00,
2013-06-04 08:22:00,57.0,57.0,-100.00,South,190,9.0,11.0,99,0.00,,,0.01,,2013-06-04 13:22:00,
2013-06-04 09:12:00,57.0,57.0,-100.00,SSE,155,19.0,22.0,99,0.00,,,0.01,,2013-06-04 14:12:00,
2013-06-04 09:52:00,57.0,57.0,-100.00,SSE,150,18.0,22.0,99,0.00,,,0.01,,2013-06-04 14:52:00,
2013-06-04 10:02:00,57.0,57.0,-100.00,South,170,16.0,20.0,99,0.01,,,0.01,,2013-06-04 15:02:00,
2013-06-04 10:12:00,57.0,57.0,-100.00,South,180,15.0,19.0,99,0.00,,,0.01,,2013-06-04 15:12:00,
2013-06-04 10:22:00,57.0,57.0,-100.00,SSE,165,17.0,21.0,99,0.00,,,0.01,,2013-06-04 15:22:00,
2013-06-04 10:33:00,57.0,57.0,-100.00,SSE,150,12.0,20.0,99,0.00,,,0.01,,2013-06-04 15:33:00,
2013-06-04 10:42:00,57.0,57.0,-100.00,SE,140,12.0,17.0,99,0.00,,,0.02,,2013-06-04 15:42:00,
2013-06-04 10:53:00,57.0,57.0,-100.00,South,185,7.0,13.0,99,0.00,,,0.02,,2013-06-04 15:53:00,
2013-06-04 11:03:00,57.0,57.0,-100.00,SSW,195,2.0,7.0,99,0.00,,,0.02,,2013-06-04 16:03:00,
2013-06-04 11:12:00,57.0,57.0,-100.00,SSE,160,4.0,6.0,99,0.00,,,0.02,,2013-06-04 16:12:00,
2013-06-04 11:22:00,58.0,57.0,-100.00,SSW,210,2.0,4.0,99,0.00,,,0.02,,2013-06-04 16:22:00,
2013-06-04 11:33:00,58.0,57.0,-100.00,SSW,195,6.0,7.0,99,0.00,,,0.02,,2013-06-04 16:33:00,
2013-06-04 11:42:00,58.0,57.0,-100.00,South,170,7.0,8.0,99,0.00,,,0.02,,2013-06-04 16:42:00,
2013-06-04 11:52:00,58.0,57.0,-100.00,SSE,160,6.0,7.0,99,0.00,,,0.02,,2013-06-04 16:52:00,
2013-06-04 12:23:00,59.0,59.0,-100.00,SSW,195,8.0,11.0,99,0.00,,,0.02,,2013-06-04 17:23:00,
2013-06-04 12:32:00,60.0,59.0,-100.00,South,185,7.0,12.0,99,0.00,,,0.02,,2013-06-04 17:32:00,
2013-06-04 12:42:00,60.0,59.0,-100.00,South,190,7.0,11.0,99,0.00,,,0.02,,2013-06-04 17:42:00,
2013-06-04 13:12:00,60.0,59.0,-100.00,South,175,12.0,14.0,99,0.00,,,0.02,,2013-06-04 18:12:00,
2013-06-04 13:22:00,60.0,59.0,-100.00,SSE,165,12.0,16.0,99,0.00,,,0.02,,2013-06-04 18:22:00,
2013-06-04 13:32:00,60.0,59.0,-100.00,SSE,165,14.0,16.0,99,0.00,,,0.02,,2013-06-04 18:32:00,
2013-06-04 14:02:00,61.0,61.0,-100.00,SSE,165,8.0,11.0,99,0.00,,,0.02,,2013-06-04 19:02:00,
2013-06-04 14:12:00,61.0,61.0,-100.00,SSE,155,6.0,9.0,99,0.00,,,0.02,,2013-06-04 19:12:00,
2013-06-04 14:22:00,61.0,61.0,-100.00,SSE,155,7.0,9.0,98,0.00,,,0.02,,2013-06-04 19:22:00,
2013-06-04 14:32:00,61.0,61.0,-100.00,South,170,7.0,10.0,98,0.00,,,0.02,,2013-06-04 19:32:00,
2013-06-04 14:42:00,61.0,61.0,-100.00,SE,145,6.0,9.0,98,0.00,,,0.02,,2013-06-04 19:42:00,
2013-06-04 14:52:00,62.0,61.0,-100.00,SSE,155,6.0,9.0,98,0.00,,,0.02,,2013-06-04 19:52:00,
2013-06-04 15:02:00,62.0,61.0,-100.00,SSE,165,9.0,10.0,98,0.00,,,0.02,,2013-06-04 20:02:00,
2013-06-04 15:22:00,62.0,61.0,-100.00,SE,145,8.0,9.0,98,0.00,,,0.02,,2013-06-04 20:22:00,
2013-06-04 15:32:00,63.0,63.0,-100.00,SSE,160,8.0,11.0,98,0.00,,,0.02,,2013-06-04 20:32:00,
2013-06-04 15:42:00,63.0,63.0,-100.00,SSE,160,7.0,10.0,98,0.00,,,0.02,,2013-06-04 20:42:00,
2013-06-04 15:52:00,63.0,63.0,-100.00,South,180,9.0,11.0,98,0.00,,,0.02,,2013-06-04 20:52:00,
2013-06-04 16:02:00,63.0,63.0,-100.00,South,180,8.0,13.0,98,0.00,,,0.02,,2013-06-04 21:02:00,
2013-06-04 16:12:00,63.0,63.0,-100.00,SSE,150,7.0,10.0,97,0.00,,,0.02,,2013-06-04 21:12:00,
2013-06-04 16:22:00,63.0,63.0,-100.00,SSE,165,3.0,8.0,97,0.00,,,0.02,,2013-06-04 21:22:00,
2013-06-04 16:33:00,64.0,63.0,-100.00,South,185,4.0,6.0,96,0.00,,,0.02,,2013-06-04 21:33:00,
2013-06-04 16:42:00,63.0,63.0,-100.00,SSE,160,2.0,6.0,96,0.00,,,0.02,,2013-06-04 21:42:00,
2013-06-04 16:52:00,64.0,63.0,-100.00,ENE,70,1.0,2.0,95,0.00,,,0.02,,2013-06-04 21:52:00,
2013-06-04 17:02:00,64.0,63.0,-100.00,South,170,2.0,4.0,94,0.00,,,0.02,,2013-06-04 22:02:00,
2013-06-04 17:12:00,64.0,63.0,-100.00,South,185,1.0,4.0,93,0.00,,,0.02,,2013-06-04 22:12:00,
2013-06-04 17:22:00,64.0,63.0,-100.00,SSW,205,1.0,2.0,92,0.00,,,0.02,,2013-06-04 22:22:00,
2013-06-04 17:32:00,65.0,63.0,-100.00,SSW,205,1.0,2.0,92,0.00,,,0.02,,2013-06-04 22:32:00,
2013-06-04 17:42:00,64.0,63.0,-100.00,South,190,1.0,4.0,92,0.00,,,0.02,,2013-06-04 22:42:00,
2013-06-04 17:52:00,65.0,63.0,-100.00,SSE,155,1.0,2.0,92,0.00,,,0.02,,2013-06-04 22:52:00,
2013-06-04 18:02:00,65.0,63.0,-100.00,SSE,150,4.0,6.0,91,0.00,,,0.02,,2013-06-04 23:02:00,
2013-06-04 18:12:00,65.0,63.0,-100.00,SE,135,6.0,7.0,91,0.00,,,0.02,,2013-06-04 23:12:00,
2013-06-04 18:22:00,66.0,63.0,-100.00,South,170,6.0,7.0,91,0.00,,,0.02,,2013-06-04 23:22:00,
2013-06-04 18:32:00,65.0,63.0,-100.00,SE,135,4.0,7.0,91,0.00,,,0.02,,2013-06-04 23:32:00,
2013-06-04 18:42:00,65.0,63.0,-100.00,SE,145,5.0,8.0,91,0.00,,,0.02,,2013-06-04 23:42:00,
2013-06-04 18:52:00,65.0,63.0,-100.00,SSE,150,7.0,9.0,91,0.00,,,0.02,,2013-06-04 23:52:00,
2013-06-04 19:02:00,66.0,63.0,-100.00,SSE,160,6.0,8.0,91,0.00,,,0.02,,2013-06-05 00:02:00,
2013-06-04 19:12:00,66.0,63.0,-100.00,SSE,150,6.0,8.0,91,0.00,,,0.02,,2013-06-05 00:12:00,
2013-06-04 19:22:00,65.0,64.0,-100.00,SE,140,9.0,11.0,93,0.00,,,0.02,,2013-06-05 00:22:00,
2013-06-04 19:32:00,65.0,64.0,-100.00,SE,140,9.0,11.0,95,0.00,,,0.02,,2013-06-05 00:32:00,
2013-06-04 19:42:00,64.0,63.0,-100.00,SSE,150,9.0,11.0,95,0.00,,,0.02,,2013-06-05 00:42:00,
2013-06-04 19:52:00,64.0,63.0,-100.00,SSE,150,7.0,11.0,96,0.00,,,0.02,,2013-06-05 00:52:00,
2013-06-04 20:02:00,64.0,63.0,-100.00,SSE,150,9.0,11.0,95,0.00,,,0.02,,2013-06-05 01:02:00,
2013-06-04 20:12:00,64.0,63.0,-100.00,SE,145,10.0,12.0,96,0.00,,,0.02,,2013-06-05 01:12:00,
2013-06-04 20:22:00,64.0,63.0,-100.00,SE,145,12.0,14.0,97,0.00,,,0.02,,2013-06-05 01:22:00,
2013-06-04 20:32:00,63.0,63.0,-100.00,SE,145,10.0,13.0,98,0.00,,,0.02,,2013-06-05 01:32:00,
2013-06-04 20:42:00,63.0,63.0,-100.00,SE,145,11.0,13.0,98,0.00,,,0.02,,2013-06-05 01:42:00,
2013-06-04 21:12:00,62.0,61.0,-100.00,SSE,150,9.0,12.0,98,0.00,,,0.02,,2013-06-05 02:12:00,
2013-06-04 21:22:00,61.0,61.0,-100.00,SSE,165,10.0,12.0,99,0.00,,,0.02,,2013-06-05 02:22:00,
2013-06-04 21:32:00,61.0,61.0,-100.00,SSE,155,9.0,12.0,99,0.00,,,0.02,,2013-06-05 02:32:00,
2013-06-04 22:02:00,60.0,59.0,-100.00,South,180,7.0,9.0,99,0.00,,,0.02,,2013-06-05 03:02:00,
2013-06-04 22:12:00,60.0,59.0,-100.00,South,175,7.0,11.0,99,0.00,,,0.02,,2013-06-05 03:12:00,
2013-06-04 22:22:00,59.0,59.0,-100.00,SSE,160,5.0,7.0,99,0.00,,,0.02,,2013-06-05 03:22:00,
2013-06-04 22:53:00,58.0,57.0,-100.00,SSW,210,4.0,4.0,99,0.00,,,0.02,,2013-06-05 03:53:00,
2013-06-04 23:02:00,58.0,57.0,-100.00,SSW,200,4.0,6.0,99,0.00,,,0.02,,2013-06-05 04:02:00,
2013-06-04 23:13:00,58.0,57.0,-100.00,SSW,195,5.0,6.0,99,0.00,,,0.02,,2013-06-05 04:13:00,
2013-06-04 23:22:00,58.0,57.0,-100.00,SW,230,2.0,2.0,99,0.00,,,0.02,,2013-06-05 04:22:00,